KLM207 EHAM-KJFK
Flight info
| Callsign | KLM207 |
|---|---|
| Flight time | N/A |
| Altitude | 34000 |
| Route | BERGI L60 PENIL M144 BAGSO DCT DOGAL/M084F360 NATA TUDEP/N0477F360 N522E ALLEX DCT ENE PARCH4 |
| Aircraft | B77W/H-SDE1E2E3FGHIJ2J3J4J5M1RWXY/LB1D1 |
Departure
| Time | 2026-04-27 11:03 |
|---|---|
| Airport | Amsterdam Airport Schiphol (EHAM) |
Arrival
| Time | N/A |
|---|---|
| Airport | John F. Kennedy International Airport (KJFK) |
| Time | Latitude | Longitude | Altitude | Speed | Heading |
|---|---|---|---|---|---|
| 2026-04-27 09:33 | 52.31373 | 4.76285 | 4 ft | 0 kts | 206° |
| 2026-04-27 10:41 | 52.31386 | 4.76295 | 4 ft | 4 kts | 205° |
| 2026-04-27 10:41 | 52.31409 | 4.76313 | 4 ft | 4 kts | 204° |
| 2026-04-27 10:41 | 52.31434 | 4.76332 | 4 ft | 4 kts | 214° |
| 2026-04-27 10:41 | 52.31449 | 4.76357 | 4 ft | 4 kts | 275° |
| 2026-04-27 10:42 | 52.31439 | 4.76384 | 4 ft | 4 kts | 333° |
| 2026-04-27 10:42 | 52.31418 | 4.76396 | 4 ft | 3 kts | 343° |
| 2026-04-27 10:42 | 52.31393 | 4.76409 | 4 ft | 4 kts | 342° |
| 2026-04-27 10:42 | 52.31370 | 4.76421 | 4 ft | 1 kts | 342° |
| 2026-04-27 10:46 | 52.31379 | 4.76416 | 4 ft | 6 kts | 342° |
| 2026-04-27 10:46 | 52.31447 | 4.76381 | 4 ft | 11 kts | 342° |
| 2026-04-27 10:46 | 52.31513 | 4.76320 | 4 ft | 11 kts | 312° |
| 2026-04-27 10:46 | 52.31536 | 4.76201 | 4 ft | 11 kts | 269° |
| 2026-04-27 10:47 | 52.31533 | 4.76074 | 4 ft | 11 kts | 267° |
| 2026-04-27 10:47 | 52.31529 | 4.75947 | 4 ft | 11 kts | 267° |
| 2026-04-27 10:47 | 52.31524 | 4.75820 | 4 ft | 11 kts | 265° |
| 2026-04-27 10:47 | 52.31520 | 4.75693 | 4 ft | 11 kts | 267° |
| 2026-04-27 10:48 | 52.31516 | 4.75566 | 4 ft | 11 kts | 267° |
| 2026-04-27 10:48 | 52.31511 | 4.75439 | 4 ft | 11 kts | 267° |
| 2026-04-27 10:48 | 52.31507 | 4.75312 | 4 ft | 11 kts | 266° |
| 2026-04-27 10:48 | 52.31503 | 4.75185 | 4 ft | 11 kts | 266° |
| 2026-04-27 10:49 | 52.31498 | 4.75059 | 4 ft | 11 kts | 266° |
| 2026-04-27 10:49 | 52.31494 | 4.74931 | 4 ft | 11 kts | 266° |
| 2026-04-27 10:49 | 52.31490 | 4.74804 | 4 ft | 11 kts | 267° |
| 2026-04-27 10:49 | 52.31485 | 4.74677 | 4 ft | 11 kts | 267° |
| 2026-04-27 10:50 | 52.31481 | 4.74551 | 4 ft | 11 kts | 267° |
| 2026-04-27 10:50 | 52.31477 | 4.74426 | 4 ft | 9 kts | 266° |
| 2026-04-27 10:50 | 52.31476 | 4.74340 | 4 ft | 7 kts | 279° |
| 2026-04-27 10:50 | 52.31513 | 4.74299 | 4 ft | 7 kts | 351° |
| 2026-04-27 10:51 | 52.31585 | 4.74302 | 4 ft | 12 kts | 3° |
| 2026-04-27 10:51 | 52.31667 | 4.74309 | 4 ft | 12 kts | 3° |
| 2026-04-27 10:51 | 52.31749 | 4.74317 | 4 ft | 12 kts | 3° |
| 2026-04-27 10:51 | 52.31831 | 4.74324 | 4 ft | 12 kts | 3° |
| 2026-04-27 10:52 | 52.31913 | 4.74331 | 4 ft | 12 kts | 3° |
| 2026-04-27 10:52 | 52.31988 | 4.74331 | 4 ft | 10 kts | 346° |
| 2026-04-27 10:52 | 52.32031 | 4.74246 | 4 ft | 10 kts | 275° |
| 2026-04-27 10:52 | 52.32035 | 4.74128 | 3 ft | 10 kts | 273° |
| 2026-04-27 10:53 | 52.32039 | 4.74009 | 3 ft | 10 kts | 273° |
| 2026-04-27 10:53 | 52.32047 | 4.73771 | 4 ft | 10 kts | 273° |
| 2026-04-27 10:53 | 52.32050 | 4.73652 | 4 ft | 10 kts | 273° |
| 2026-04-27 10:54 | 52.32054 | 4.73533 | 4 ft | 10 kts | 273° |
| 2026-04-27 10:54 | 52.32068 | 4.73417 | 4 ft | 10 kts | 292° |
| 2026-04-27 10:54 | 52.32113 | 4.73324 | 4 ft | 10 kts | 318° |
| 2026-04-27 10:54 | 52.32167 | 4.73244 | 4 ft | 10 kts | 319° |
| 2026-04-27 10:55 | 52.32222 | 4.73167 | 4 ft | 10 kts | 319° |
| 2026-04-27 10:55 | 52.32277 | 4.73090 | 4 ft | 10 kts | 319° |
| 2026-04-27 10:55 | 52.32333 | 4.73011 | 4 ft | 10 kts | 319° |
| 2026-04-27 10:55 | 52.32389 | 4.72934 | 4 ft | 10 kts | 319° |
| 2026-04-27 10:56 | 52.32444 | 4.72856 | 4 ft | 10 kts | 319° |
| 2026-04-27 10:56 | 52.32500 | 4.72779 | 4 ft | 10 kts | 319° |
| 2026-04-27 10:56 | 52.32555 | 4.72701 | 5 ft | 10 kts | 319° |
| 2026-04-27 10:56 | 52.32609 | 4.72624 | 4 ft | 10 kts | 319° |
| 2026-04-27 10:57 | 52.32664 | 4.72543 | 4 ft | 10 kts | 314° |
| 2026-04-27 10:57 | 52.32714 | 4.72457 | 4 ft | 10 kts | 312° |
| 2026-04-27 10:57 | 52.32761 | 4.72370 | 4 ft | 10 kts | 311° |
| 2026-04-27 10:57 | 52.32812 | 4.72275 | 4 ft | 12 kts | 311° |
| 2026-04-27 10:58 | 52.32868 | 4.72171 | 4 ft | 12 kts | 311° |
| 2026-04-27 10:58 | 52.32925 | 4.72066 | 4 ft | 12 kts | 311° |
| 2026-04-27 10:58 | 52.32981 | 4.71961 | 5 ft | 12 kts | 311° |
| 2026-04-27 10:58 | 52.33038 | 4.71856 | 4 ft | 12 kts | 311° |
| 2026-04-27 10:59 | 52.33094 | 4.71752 | 4 ft | 12 kts | 311° |
| 2026-04-27 10:59 | 52.33141 | 4.71636 | 4 ft | 12 kts | 289° |
| 2026-04-27 10:59 | 52.33127 | 4.71504 | 4 ft | 12 kts | 234° |
| 2026-04-27 11:00 | 52.33003 | 4.71314 | 5 ft | 12 kts | 221° |
| 2026-04-27 11:00 | 52.32939 | 4.71222 | 4 ft | 12 kts | 221° |
| 2026-04-27 11:00 | 52.32878 | 4.71127 | 4 ft | 12 kts | 234° |
| 2026-04-27 11:00 | 52.32863 | 4.71019 | 3 ft | 8 kts | 271° |
| 2026-04-27 11:01 | 52.32867 | 4.70938 | 3 ft | 3 kts | 275° |
| 2026-04-27 11:01 | 52.32870 | 4.70911 | 3 ft | 3 kts | 290° |
| 2026-04-27 11:01 | 52.32892 | 4.70895 | 3 ft | 4 kts | 355° |
| 2026-04-27 11:01 | 52.32910 | 4.70896 | 3 ft | 0 kts | 4° |
| 2026-04-27 11:02 | 52.32991 | 4.70905 | 1 ft | 41 kts | 4° |
| 2026-04-27 11:02 | 52.33534 | 4.70954 | 4 ft | 113 kts | 3° |
| 2026-04-27 11:03 | 52.34568 | 4.71048 | 4 ft | 175 kts | 3° |
| 2026-04-27 11:03 | 52.35876 | 4.71156 | 305 ft | 192 kts | 4° |
| 2026-04-27 11:03 | 52.37210 | 4.71271 | 952 ft | 193 kts | 4° |
| 2026-04-27 11:03 | 52.38566 | 4.71387 | 1596 ft | 197 kts | 4° |
| 2026-04-27 11:04 | 52.39910 | 4.71515 | 2316 ft | 191 kts | 4° |
| 2026-04-27 11:04 | 52.41255 | 4.71623 | 2913 ft | 196 kts | 4° |
| 2026-04-27 11:04 | 52.42642 | 4.71728 | 3428 ft | 203 kts | 4° |
| 2026-04-27 11:04 | 52.44024 | 4.71826 | 4142 ft | 193 kts | 1° |
| 2026-04-27 11:05 | 52.45342 | 4.71325 | 4590 ft | 208 kts | 328° |
| 2026-04-27 11:05 | 52.46299 | 4.69397 | 4783 ft | 235 kts | 289° |
| 2026-04-27 11:05 | 52.46706 | 4.66747 | 5296 ft | 245 kts | 286° |
| 2026-04-27 11:05 | 52.47472 | 4.64209 | 5756 ft | 257 kts | 315° |
| 2026-04-27 11:06 | 52.48793 | 4.62235 | 6450 ft | 260 kts | 319° |
| 2026-04-27 11:06 | 52.50152 | 4.60202 | 7191 ft | 269 kts | 317° |
| 2026-04-27 11:06 | 52.51522 | 4.58055 | 7972 ft | 275 kts | 318° |
| 2026-04-27 11:06 | 52.53071 | 4.56197 | 8675 ft | 279 kts | 329° |
| 2026-04-27 11:07 | 52.54775 | 4.54616 | 9502 ft | 282 kts | 332° |
| 2026-04-27 11:07 | 52.56508 | 4.53072 | 10381 ft | 283 kts | 331° |
| 2026-04-27 11:07 | 52.58259 | 4.51499 | 11045 ft | 295 kts | 330° |
| 2026-04-27 11:07 | 52.60135 | 4.49783 | 11264 ft | 321 kts | 329° |
| 2026-04-27 11:08 | 52.62159 | 4.47906 | 11491 ft | 347 kts | 328° |
| 2026-04-27 11:08 | 52.64316 | 4.45890 | 11953 ft | 363 kts | 328° |
| 2026-04-27 11:08 | 52.66530 | 4.43811 | 12729 ft | 370 kts | 328° |
| 2026-04-27 11:08 | 52.68776 | 4.41696 | 13605 ft | 374 kts | 328° |
| 2026-04-27 11:09 | 52.71040 | 4.39556 | 14475 ft | 377 kts | 328° |
| 2026-04-27 11:09 | 52.73285 | 4.37328 | 15233 ft | 375 kts | 321° |
| 2026-04-27 11:09 | 52.75050 | 4.34222 | 15806 ft | 380 kts | 301° |
| 2026-04-27 11:09 | 52.76149 | 4.30270 | 16579 ft | 379 kts | 288° |
| 2026-04-27 11:10 | 52.76982 | 4.26106 | 17269 ft | 385 kts | 288° |
| 2026-04-27 11:10 | 52.77816 | 4.21865 | 17998 ft | 390 kts | 287° |
| 2026-04-27 11:10 | 52.78664 | 4.17535 | 18790 ft | 393 kts | 287° |
| 2026-04-27 11:10 | 52.79224 | 4.14681 | 19289 ft | 395 kts | 287° |
| 2026-04-27 11:11 | 52.80079 | 4.10349 | 20001 ft | 399 kts | 287° |
| 2026-04-27 11:11 | 52.81230 | 4.04542 | 20894 ft | 404 kts | 287° |
| 2026-04-27 11:11 | 52.82113 | 4.00109 | 21537 ft | 408 kts | 287° |
| 2026-04-27 11:11 | 52.83005 | 3.95622 | 22177 ft | 412 kts | 287° |
| 2026-04-27 11:12 | 52.83904 | 3.91105 | 22812 ft | 415 kts | 287° |
| 2026-04-27 11:12 | 52.84516 | 3.88027 | 23225 ft | 418 kts | 287° |
| 2026-04-27 11:12 | 52.85413 | 3.83506 | 23798 ft | 421 kts | 287° |
| 2026-04-27 11:12 | 52.86326 | 3.78893 | 24370 ft | 424 kts | 287° |
| 2026-04-27 11:13 | 52.87246 | 3.74223 | 24927 ft | 427 kts | 287° |
| 2026-04-27 11:13 | 52.88167 | 3.69541 | 25480 ft | 430 kts | 287° |
| 2026-04-27 11:13 | 52.89093 | 3.64821 | 26011 ft | 432 kts | 287° |
| 2026-04-27 11:13 | 52.90025 | 3.60060 | 26553 ft | 435 kts | 286° |
| 2026-04-27 11:14 | 52.90958 | 3.55279 | 27067 ft | 437 kts | 286° |
| 2026-04-27 11:14 | 52.91894 | 3.50476 | 27562 ft | 439 kts | 286° |
| 2026-04-27 11:14 | 52.92834 | 3.45652 | 28022 ft | 441 kts | 286° |
| 2026-04-27 11:14 | 52.93776 | 3.40798 | 28451 ft | 443 kts | 286° |
| 2026-04-27 11:15 | 52.94722 | 3.35925 | 28852 ft | 446 kts | 286° |
| 2026-04-27 11:15 | 52.95665 | 3.31024 | 29264 ft | 447 kts | 286° |
| 2026-04-27 11:15 | 52.96611 | 3.26100 | 29652 ft | 448 kts | 286° |
| 2026-04-27 11:15 | 52.97558 | 3.21163 | 30018 ft | 450 kts | 285° |
| 2026-04-27 11:16 | 52.98506 | 3.16198 | 30350 ft | 452 kts | 285° |
| 2026-04-27 11:16 | 52.99452 | 3.11233 | 30765 ft | 451 kts | 285° |
| 2026-04-27 11:16 | 53.00395 | 3.06273 | 31200 ft | 449 kts | 285° |
| 2026-04-27 11:16 | 53.01330 | 3.01340 | 31624 ft | 447 kts | 285° |
| 2026-04-27 11:17 | 53.02258 | 2.96421 | 32020 ft | 446 kts | 285° |
| 2026-04-27 11:17 | 53.03182 | 2.91502 | 32403 ft | 445 kts | 285° |
| 2026-04-27 11:17 | 53.04103 | 2.86598 | 32803 ft | 443 kts | 285° |
| 2026-04-27 11:17 | 53.05017 | 2.81720 | 33162 ft | 443 kts | 285° |
| 2026-04-27 11:18 | 53.05931 | 2.76824 | 33481 ft | 442 kts | 285° |
| 2026-04-27 11:18 | 53.06840 | 2.71947 | 33791 ft | 442 kts | 285° |
| 2026-04-27 11:18 | 53.07748 | 2.67060 | 34110 ft | 441 kts | 285° |
| 2026-04-27 11:18 | 53.08655 | 2.62171 | 34247 ft | 445 kts | 285° |
| 2026-04-27 11:19 | 53.10466 | 2.52300 | 34297 ft | 446 kts | 283° |
| 2026-04-27 11:19 | 53.11589 | 2.42331 | 34319 ft | 439 kts | 276° |
| 2026-04-27 11:20 | 53.12380 | 2.32253 | 34310 ft | 439 kts | 276° |
| 2026-04-27 11:20 | 53.13180 | 2.22180 | 34312 ft | 439 kts | 276° |
| 2026-04-27 11:21 | 53.13986 | 2.12089 | 34316 ft | 439 kts | 276° |
| 2026-04-27 11:21 | 53.14787 | 2.01998 | 34310 ft | 440 kts | 276° |
| 2026-04-27 11:22 | 53.15585 | 1.91871 | 34300 ft | 441 kts | 276° |
| 2026-04-27 11:22 | 53.16372 | 1.81724 | 34303 ft | 442 kts | 276° |
| 2026-04-27 11:23 | 53.17155 | 1.71557 | 34307 ft | 443 kts | 276° |
| 2026-04-27 11:23 | 53.17932 | 1.61367 | 34311 ft | 443 kts | 276° |
| 2026-04-27 11:24 | 53.18697 | 1.51170 | 34297 ft | 443 kts | 276° |
| 2026-04-27 11:24 | 53.19453 | 1.40973 | 34301 ft | 443 kts | 276° |
| 2026-04-27 11:25 | 53.20196 | 1.30821 | 34314 ft | 443 kts | 276° |
| 2026-04-27 11:25 | 53.20935 | 1.20603 | 34308 ft | 444 kts | 276° |
| 2026-04-27 11:26 | 53.21668 | 1.10389 | 34301 ft | 443 kts | 276° |
| 2026-04-27 11:26 | 53.22392 | 1.00161 | 34300 ft | 443 kts | 276° |
| 2026-04-27 11:27 | 53.23104 | 0.89947 | 34299 ft | 443 kts | 276° |
| 2026-04-27 11:27 | 53.23809 | 0.79714 | 34300 ft | 444 kts | 276° |
| 2026-04-27 11:28 | 53.24506 | 0.69484 | 34310 ft | 444 kts | 276° |
| 2026-04-27 11:28 | 53.25194 | 0.59236 | 34307 ft | 444 kts | 276° |
| 2026-04-27 11:29 | 53.25875 | 0.48967 | 34310 ft | 445 kts | 276° |
| 2026-04-27 11:29 | 53.26547 | 0.38697 | 34301 ft | 445 kts | 276° |
| 2026-04-27 11:30 | 53.27210 | 0.28406 | 34300 ft | 445 kts | 276° |
| 2026-04-27 11:30 | 53.27866 | 0.18112 | 34301 ft | 446 kts | 276° |
| 2026-04-27 11:31 | 53.28511 | 0.07866 | 34306 ft | 446 kts | 276° |
| 2026-04-27 11:31 | 53.29349 | -0.02461 | 34314 ft | 446 kts | 279° |
| 2026-04-27 11:32 | 53.30421 | -0.12612 | 34297 ft | 447 kts | 282° |
| 2026-04-27 11:32 | 53.31492 | -0.22867 | 34313 ft | 449 kts | 281° |
| 2026-04-27 11:33 | 53.32543 | -0.33183 | 34309 ft | 450 kts | 281° |
| 2026-04-27 11:33 | 53.33585 | -0.43530 | 34313 ft | 451 kts | 281° |
| 2026-04-27 11:34 | 53.34630 | -0.53882 | 34304 ft | 451 kts | 281° |
| 2026-04-27 11:34 | 53.35667 | -0.64225 | 34302 ft | 450 kts | 281° |
| 2026-04-27 11:35 | 53.36677 | -0.74579 | 34312 ft | 450 kts | 281° |
| 2026-04-27 11:35 | 53.37673 | -0.84918 | 34294 ft | 449 kts | 281° |
| 2026-04-27 11:36 | 53.38658 | -0.95156 | 34314 ft | 448 kts | 281° |
| 2026-04-27 11:36 | 53.39679 | -1.05435 | 34314 ft | 448 kts | 281° |
| 2026-04-27 11:37 | 53.40666 | -1.15737 | 34313 ft | 447 kts | 281° |
| 2026-04-27 11:37 | 53.41631 | -1.26040 | 34319 ft | 447 kts | 281° |
| 2026-04-27 11:38 | 53.42578 | -1.36335 | 34327 ft | 447 kts | 281° |
| 2026-04-27 11:38 | 53.43548 | -1.46641 | 34326 ft | 447 kts | 281° |
| 2026-04-27 11:39 | 53.44500 | -1.56951 | 34315 ft | 447 kts | 281° |
| 2026-04-27 11:39 | 53.45436 | -1.67246 | 34329 ft | 446 kts | 281° |
| 2026-04-27 11:40 | 53.46367 | -1.77563 | 34324 ft | 447 kts | 281° |
| 2026-04-27 11:40 | 53.47282 | -1.87868 | 34336 ft | 446 kts | 281° |
| 2026-04-27 11:41 | 53.48172 | -1.98176 | 34330 ft | 446 kts | 281° |
| 2026-04-27 11:41 | 53.49057 | -2.08480 | 34337 ft | 446 kts | 281° |
| 2026-04-27 11:42 | 53.49936 | -2.18790 | 34340 ft | 446 kts | 281° |
| 2026-04-27 11:42 | 53.50811 | -2.29102 | 34340 ft | 446 kts | 281° |
| 2026-04-27 11:43 | 53.51678 | -2.39426 | 34351 ft | 447 kts | 281° |
| 2026-04-27 11:43 | 53.52538 | -2.49774 | 34350 ft | 447 kts | 281° |
| 2026-04-27 11:44 | 53.53387 | -2.60076 | 34350 ft | 448 kts | 281° |
| 2026-04-27 11:44 | 53.54232 | -2.70454 | 34351 ft | 449 kts | 281° |
| 2026-04-27 11:45 | 53.54934 | -2.79175 | 34348 ft | 450 kts | 281° |
| 2026-04-27 11:45 | 53.55899 | -2.91296 | 34352 ft | 450 kts | 281° |
| 2026-04-27 11:46 | 53.56723 | -3.01750 | 34366 ft | 451 kts | 281° |
| 2026-04-27 11:46 | 53.57536 | -3.12217 | 34375 ft | 451 kts | 281° |
| 2026-04-27 11:47 | 53.58341 | -3.22695 | 34378 ft | 452 kts | 282° |
| 2026-04-27 11:47 | 53.59139 | -3.33177 | 34372 ft | 452 kts | 282° |
| 2026-04-27 11:48 | 53.59925 | -3.43665 | 34369 ft | 452 kts | 282° |
| 2026-04-27 11:48 | 53.60705 | -3.54172 | 34365 ft | 451 kts | 282° |
| 2026-04-27 11:49 | 53.61468 | -3.64564 | 34369 ft | 450 kts | 282° |
| 2026-04-27 11:49 | 53.62047 | -3.74861 | 34362 ft | 452 kts | 279° |
| 2026-04-27 11:50 | 53.62424 | -3.85422 | 34367 ft | 451 kts | 279° |
| 2026-04-27 11:50 | 53.62855 | -3.95951 | 34368 ft | 450 kts | 280° |
| 2026-04-27 11:51 | 53.63276 | -4.06462 | 34368 ft | 450 kts | 280° |
| 2026-04-27 11:52 | 53.63874 | -4.22245 | 34367 ft | 450 kts | 280° |
| 2026-04-27 11:52 | 53.64264 | -4.32780 | 34371 ft | 451 kts | 280° |
| 2026-04-27 11:53 | 53.64637 | -4.43377 | 34420 ft | 455 kts | 279° |
| 2026-04-27 11:53 | 53.64823 | -4.48711 | 34656 ft | 456 kts | 279° |
| 2026-04-27 11:53 | 53.65007 | -4.54041 | 34955 ft | 456 kts | 279° |
| 2026-04-27 11:53 | 53.65188 | -4.59372 | 35242 ft | 455 kts | 279° |
| 2026-04-27 11:54 | 53.65368 | -4.64706 | 35488 ft | 456 kts | 279° |
| 2026-04-27 11:54 | 53.65546 | -4.70041 | 35703 ft | 457 kts | 278° |
| 2026-04-27 11:54 | 53.65723 | -4.75393 | 35919 ft | 458 kts | 278° |
| 2026-04-27 11:54 | 53.65898 | -4.80759 | 36173 ft | 458 kts | 278° |
| 2026-04-27 11:55 | 53.66070 | -4.86125 | 36296 ft | 460 kts | 278° |
| 2026-04-27 11:55 | 53.66428 | -4.96932 | 36383 ft | 462 kts | 278° |
| 2026-04-27 11:56 | 53.66722 | -5.05922 | 36382 ft | 462 kts | 278° |
| 2026-04-27 11:56 | 53.67117 | -5.18482 | 36382 ft | 462 kts | 278° |
| 2026-04-27 11:57 | 53.67428 | -5.29302 | 36386 ft | 462 kts | 278° |
| 2026-04-27 11:57 | 53.67732 | -5.40137 | 36390 ft | 462 kts | 278° |
| 2026-04-27 11:58 | 53.67985 | -5.49219 | 36386 ft | 462 kts | 279° |
| 2026-04-27 11:58 | 53.68662 | -5.59864 | 36391 ft | 459 kts | 283° |
| 2026-04-27 11:59 | 53.69468 | -5.70576 | 36393 ft | 460 kts | 283° |
| 2026-04-27 11:59 | 53.70258 | -5.81305 | 36396 ft | 461 kts | 283° |
| 2026-04-27 12:00 | 53.71026 | -5.92038 | 36395 ft | 461 kts | 283° |
| 2026-04-27 12:00 | 53.71775 | -6.02805 | 36390 ft | 461 kts | 283° |
| 2026-04-27 12:01 | 53.72512 | -6.13563 | 36391 ft | 461 kts | 282° |
| 2026-04-27 12:01 | 53.73240 | -6.24318 | 36398 ft | 461 kts | 282° |
| 2026-04-27 12:02 | 53.73961 | -6.35083 | 36404 ft | 461 kts | 282° |
| 2026-04-27 12:02 | 53.74668 | -6.45777 | 36393 ft | 461 kts | 282° |
| 2026-04-27 12:03 | 53.75371 | -6.56536 | 36397 ft | 461 kts | 282° |
| 2026-04-27 12:03 | 53.76062 | -6.67324 | 36416 ft | 462 kts | 282° |
| 2026-04-27 12:04 | 53.76747 | -6.78146 | 36392 ft | 463 kts | 282° |
| 2026-04-27 12:04 | 53.77425 | -6.88997 | 36389 ft | 464 kts | 282° |
| 2026-04-27 12:05 | 53.78092 | -6.99882 | 36386 ft | 465 kts | 282° |
| 2026-04-27 12:05 | 53.78748 | -7.10774 | 36390 ft | 466 kts | 281° |
| 2026-04-27 12:06 | 53.79401 | -7.21690 | 36391 ft | 466 kts | 281° |
| 2026-04-27 12:06 | 53.80037 | -7.32539 | 36396 ft | 467 kts | 281° |
| 2026-04-27 12:07 | 53.80668 | -7.43470 | 36409 ft | 467 kts | 281° |
| 2026-04-27 12:07 | 53.81288 | -7.54398 | 36409 ft | 467 kts | 281° |
| 2026-04-27 12:08 | 53.81898 | -7.65338 | 36397 ft | 466 kts | 281° |
| 2026-04-27 12:08 | 53.82501 | -7.76251 | 36414 ft | 466 kts | 281° |
| 2026-04-27 12:09 | 53.83089 | -7.87164 | 36411 ft | 465 kts | 281° |
| 2026-04-27 12:09 | 53.83667 | -7.98067 | 36413 ft | 464 kts | 281° |
| 2026-04-27 12:10 | 53.84232 | -8.08956 | 36416 ft | 464 kts | 281° |
| 2026-04-27 12:10 | 53.84790 | -8.19820 | 36421 ft | 462 kts | 281° |
| 2026-04-27 12:11 | 53.85335 | -8.30643 | 36419 ft | 461 kts | 281° |
| 2026-04-27 12:11 | 53.85869 | -8.41453 | 36412 ft | 459 kts | 281° |
| 2026-04-27 12:12 | 53.86393 | -8.52235 | 36400 ft | 459 kts | 281° |
| 2026-04-27 12:12 | 53.86904 | -8.62949 | 36401 ft | 459 kts | 281° |
| 2026-04-27 12:13 | 53.87411 | -8.73745 | 36411 ft | 461 kts | 280° |
| 2026-04-27 12:13 | 53.87906 | -8.84589 | 36404 ft | 462 kts | 280° |
| 2026-04-27 12:14 | 53.88395 | -8.95469 | 36409 ft | 464 kts | 280° |
| 2026-04-27 12:14 | 53.88877 | -9.06420 | 36415 ft | 466 kts | 279° |
| 2026-04-27 12:15 | 53.89350 | -9.17399 | 36402 ft | 468 kts | 279° |
| 2026-04-27 12:15 | 53.89813 | -9.28415 | 36399 ft | 468 kts | 279° |
| 2026-04-27 12:16 | 53.90265 | -9.39436 | 36412 ft | 468 kts | 279° |
| 2026-04-27 12:16 | 53.90708 | -9.50445 | 36399 ft | 468 kts | 279° |
| 2026-04-27 12:17 | 53.91144 | -9.61442 | 36414 ft | 467 kts | 279° |
| 2026-04-27 12:17 | 53.91562 | -9.72424 | 36414 ft | 466 kts | 279° |
| 2026-04-27 12:18 | 53.91975 | -9.83387 | 36419 ft | 465 kts | 279° |
| 2026-04-27 12:18 | 53.92374 | -9.94327 | 36410 ft | 464 kts | 279° |
| 2026-04-27 12:19 | 53.92765 | -10.05258 | 36408 ft | 464 kts | 278° |
| 2026-04-27 12:19 | 53.93141 | -10.16112 | 36413 ft | 463 kts | 278° |
| 2026-04-27 12:20 | 53.93513 | -10.27047 | 36414 ft | 464 kts | 278° |
| 2026-04-27 12:20 | 53.93873 | -10.37980 | 36418 ft | 465 kts | 278° |
| 2026-04-27 12:21 | 53.94224 | -10.48952 | 36418 ft | 466 kts | 278° |
| 2026-04-27 12:21 | 53.94568 | -10.59940 | 36416 ft | 467 kts | 278° |
| 2026-04-27 12:22 | 53.94901 | -10.70982 | 36416 ft | 468 kts | 278° |
| 2026-04-27 12:22 | 53.95227 | -10.82042 | 36416 ft | 470 kts | 277° |
| 2026-04-27 12:23 | 53.95542 | -10.93135 | 36411 ft | 471 kts | 277° |
| 2026-04-27 12:23 | 53.95843 | -11.04162 | 36412 ft | 472 kts | 277° |
| 2026-04-27 12:24 | 53.96136 | -11.15308 | 36414 ft | 473 kts | 277° |
| 2026-04-27 12:24 | 53.96421 | -11.26465 | 36412 ft | 473 kts | 276° |
| 2026-04-27 12:25 | 53.96694 | -11.37636 | 36415 ft | 473 kts | 276° |
| 2026-04-27 12:25 | 53.96960 | -11.48804 | 36410 ft | 473 kts | 276° |
| 2026-04-27 12:26 | 53.97215 | -11.59976 | 36417 ft | 473 kts | 276° |
| 2026-04-27 12:26 | 53.97460 | -11.71154 | 36417 ft | 473 kts | 276° |
| 2026-04-27 12:27 | 53.97693 | -11.82336 | 36412 ft | 473 kts | 275° |
| 2026-04-27 12:27 | 53.97916 | -11.93514 | 36416 ft | 473 kts | 275° |
| 2026-04-27 12:28 | 53.98129 | -12.04675 | 36411 ft | 472 kts | 275° |
| 2026-04-27 12:28 | 53.98332 | -12.15773 | 36403 ft | 472 kts | 275° |
| 2026-04-27 12:29 | 53.98523 | -12.26921 | 36405 ft | 472 kts | 275° |
| 2026-04-27 12:29 | 53.98703 | -12.38055 | 36411 ft | 471 kts | 275° |
| 2026-04-27 12:30 | 53.98874 | -12.49190 | 36409 ft | 472 kts | 275° |
| 2026-04-27 12:30 | 53.99035 | -12.60335 | 36413 ft | 472 kts | 275° |
| 2026-04-27 12:31 | 53.99187 | -12.71504 | 36398 ft | 473 kts | 274° |
| 2026-04-27 12:31 | 53.99327 | -12.82695 | 36399 ft | 474 kts | 274° |
| 2026-04-27 12:32 | 53.99459 | -12.93905 | 36409 ft | 475 kts | 274° |
| 2026-04-27 12:32 | 53.99579 | -13.05140 | 36411 ft | 476 kts | 274° |
| 2026-04-27 12:33 | 53.99687 | -13.16388 | 36403 ft | 476 kts | 274° |
| 2026-04-27 12:33 | 53.99786 | -13.27636 | 36402 ft | 476 kts | 273° |
| 2026-04-27 12:34 | 53.99875 | -13.38894 | 36408 ft | 476 kts | 273° |
| 2026-04-27 12:34 | 53.99954 | -13.50155 | 36411 ft | 476 kts | 273° |
| 2026-04-27 12:35 | 54.00022 | -13.61390 | 36402 ft | 475 kts | 273° |
| 2026-04-27 12:35 | 54.00079 | -13.72627 | 36404 ft | 475 kts | 272° |
| 2026-04-27 12:36 | 54.00127 | -13.83835 | 36392 ft | 474 kts | 272° |
| 2026-04-27 12:36 | 54.00164 | -13.94944 | 36397 ft | 473 kts | 272° |
| 2026-04-27 12:37 | 54.00189 | -14.06121 | 36397 ft | 472 kts | 272° |
| 2026-04-27 12:37 | 54.00206 | -14.17282 | 36396 ft | 472 kts | 272° |
| 2026-04-27 12:38 | 54.00209 | -14.28452 | 36392 ft | 472 kts | 272° |
| 2026-04-27 12:38 | 54.00205 | -14.39600 | 36387 ft | 472 kts | 272° |
| 2026-04-27 12:39 | 54.00189 | -14.50793 | 36387 ft | 473 kts | 271° |
| 2026-04-27 12:39 | 54.00164 | -14.61962 | 36383 ft | 473 kts | 271° |
| 2026-04-27 12:40 | 54.00128 | -14.73143 | 36377 ft | 473 kts | 271° |
| 2026-04-27 12:40 | 54.00081 | -14.84327 | 36379 ft | 473 kts | 271° |
| 2026-04-27 12:41 | 54.00027 | -14.95514 | 36377 ft | 473 kts | 271° |
| 2026-04-27 12:41 | 54.00032 | -15.06717 | 36376 ft | 473 kts | 272° |
| 2026-04-27 12:42 | 54.00273 | -15.17812 | 36379 ft | 473 kts | 274° |
| 2026-04-27 12:42 | 54.00542 | -15.28974 | 36375 ft | 473 kts | 273° |
| 2026-04-27 12:43 | 54.00765 | -15.40147 | 36363 ft | 473 kts | 272° |
| 2026-04-27 12:43 | 54.00958 | -15.51350 | 36361 ft | 474 kts | 272° |
| 2026-04-27 12:44 | 54.01135 | -15.62560 | 36360 ft | 474 kts | 272° |
| 2026-04-27 12:44 | 54.01275 | -15.71887 | 36357 ft | 475 kts | 272° |
| 2026-04-27 12:45 | 54.01435 | -15.83108 | 36355 ft | 475 kts | 271° |
| 2026-04-27 12:45 | 54.01586 | -15.94356 | 36353 ft | 476 kts | 271° |
| 2026-04-27 12:46 | 54.01725 | -16.05606 | 36348 ft | 476 kts | 271° |
| 2026-04-27 12:46 | 54.01856 | -16.16864 | 36349 ft | 476 kts | 271° |
| 2026-04-27 12:47 | 54.01974 | -16.28128 | 36350 ft | 477 kts | 271° |
| 2026-04-27 12:47 | 54.02084 | -16.39335 | 36348 ft | 477 kts | 271° |
| 2026-04-27 12:48 | 54.02181 | -16.50600 | 36348 ft | 476 kts | 271° |
| 2026-04-27 12:48 | 54.02269 | -16.61855 | 36343 ft | 475 kts | 271° |
| 2026-04-27 12:49 | 54.02346 | -16.73099 | 36343 ft | 475 kts | 271° |
| 2026-04-27 12:49 | 54.02413 | -16.84314 | 36339 ft | 474 kts | 270° |
| 2026-04-27 12:50 | 54.02469 | -16.95504 | 36338 ft | 473 kts | 270° |
| 2026-04-27 12:50 | 54.02514 | -17.06674 | 36340 ft | 472 kts | 270° |
| 2026-04-27 12:51 | 54.02549 | -17.17813 | 36338 ft | 471 kts | 270° |
| 2026-04-27 12:51 | 54.02573 | -17.28950 | 36335 ft | 470 kts | 270° |
| 2026-04-27 12:52 | 54.02587 | -17.40080 | 36329 ft | 470 kts | 269° |
| 2026-04-27 12:52 | 54.02590 | -17.51197 | 36330 ft | 470 kts | 269° |
| 2026-04-27 12:53 | 54.02579 | -17.67883 | 36336 ft | 470 kts | 269° |
| 2026-04-27 12:53 | 54.02555 | -17.79022 | 36337 ft | 471 kts | 269° |
| 2026-04-27 12:54 | 54.02524 | -17.90080 | 36324 ft | 471 kts | 269° |
| 2026-04-27 12:54 | 54.02483 | -18.01220 | 36326 ft | 471 kts | 268° |
| 2026-04-27 12:55 | 54.02429 | -18.12365 | 36322 ft | 471 kts | 268° |
| 2026-04-27 12:55 | 54.02367 | -18.23510 | 36317 ft | 471 kts | 268° |
| 2026-04-27 12:56 | 54.02294 | -18.34668 | 36325 ft | 471 kts | 268° |
| 2026-04-27 12:56 | 54.02210 | -18.45818 | 36316 ft | 471 kts | 268° |
| 2026-04-27 12:57 | 54.02117 | -18.56969 | 36318 ft | 471 kts | 268° |
| 2026-04-27 12:57 | 54.02012 | -18.68046 | 36312 ft | 471 kts | 268° |